sensor_id;sensor_type;location;lat;lon;timestamp;pressure;altitude;pressure_sealevel;temperature;humidity
44001;BME280;29660;42.892;24.710;2023-02-01T00:03:41;96977.00;;;1.47;92.77
44001;BME280;29660;42.892;24.710;2023-02-01T00:08:44;96756.38;;;-0.05;94.54
44001;BME280;29660;42.892;24.710;2023-02-01T00:13:46;97009.31;;;1.25;97.11
44001;BME280;29660;42.892;24.710;2023-02-01T00:18:50;96747.50;;;-0.46;98.59
44001;BME280;29660;42.892;24.710;2023-02-01T00:23:54;96763.38;;;-0.59;100.00
44001;BME280;29660;42.892;24.710;2023-02-01T00:28:56;96811.25;;;-0.52;100.00
44001;BME280;29660;42.892;24.710;2023-02-01T00:34:01;97067.50;;;0.98;100.00
44001;BME280;29660;42.892;24.710;2023-02-01T00:39:03;96791.94;;;-0.88;100.00
44001;BME280;29660;42.892;24.710;2023-02-01T00:44:05;96852.84;;;-0.44;100.00
44001;BME280;29660;42.892;24.710;2023-02-01T00:49:07;97049.75;;;0.82;100.00
44001;BME280;29660;42.892;24.710;2023-02-01T00:54:10;97043.75;;;0.93;100.00
44001;BME280;29660;42.892;24.710;2023-02-01T00:59:12;97000.53;;;0.77;100.00
44001;BME280;29660;42.892;24.710;2023-02-01T01:04:15;96865.59;;;0.01;99.54
44001;BME280;29660;42.892;24.710;2023-02-01T01:09:17;96754.22;;;-0.68;96.43
44001;BME280;29660;42.892;24.710;2023-02-01T01:14:19;97040.97;;;1.18;96.40
44001;BME280;29660;42.892;24.710;2023-02-01T01:19:21;97015.22;;;0.96;92.51
44001;BME280;29660;42.892;24.710;2023-02-01T01:24:23;96748.75;;;-0.67;91.85
44001;BME280;29660;42.892;24.710;2023-02-01T01:29:25;96958.78;;;0.76;92.61
44001;BME280;29660;42.892;24.710;2023-02-01T01:34:27;96982.56;;;1.04;92.00
44001;BME280;29660;42.892;24.710;2023-02-01T01:39:29;96952.09;;;0.91;88.39
44001;BME280;29660;42.892;24.710;2023-02-01T01:44:55;97026.25;;;1.40;91.10
44001;BME280;29660;42.892;24.710;2023-02-01T01:49:58;96972.09;;;1.16;88.60
44001;BME280;29660;42.892;24.710;2023-02-01T01:55:00;96816.28;;;0.21;88.81
44001;BME280;29660;42.892;24.710;2023-02-01T02:00:07;96960.09;;;1.08;87.05
44001;BME280;29660;42.892;24.710;2023-02-01T02:05:19;96772.91;;;-0.05;88.81
44001;BME280;29660;42.892;24.710;2023-02-01T02:10:21;96772.34;;;-0.07;87.44
44001;BME280;29660;42.892;24.710;2023-02-01T02:21:16;96813.09;;;0.19;84.72
44001;BME280;29660;42.892;24.710;2023-02-01T02:26:46;97021.69;;;1.59;83.90
44001;BME280;29660;42.892;24.710;2023-02-01T02:53:30;96806.94;;;0.26;81.39
44001;BME280;29660;42.892;24.710;2023-02-01T02:58:53;97038.34;;;1.53;81.25
44001;BME280;29660;42.892;24.710;2023-02-01T03:04:16;96935.28;;;0.92;81.87
44001;BME280;29660;42.892;24.710;2023-02-01T03:09:31;96975.50;;;1.28;82.27
44001;BME280;29660;42.892;24.710;2023-02-01T03:14:38;96770.63;;;-0.01;79.98
44001;BME280;29660;42.892;24.710;2023-02-01T03:19:46;96821.78;;;0.32;80.72
44001;BME280;29660;42.892;24.710;2023-02-01T03:24:58;96992.31;;;1.39;83.01
44001;BME280;29660;42.892;24.710;2023-02-01T03:30:08;96774.03;;;-0.12;83.45
44001;BME280;29660;42.892;24.710;2023-02-01T03:35:11;96784.06;;;-0.09;82.77
44001;BME280;29660;42.892;24.710;2023-02-01T03:40:15;96776.44;;;-0.11;83.48
44001;BME280;29660;42.892;24.710;2023-02-01T03:45:33;96994.69;;;1.29;83.12
44001;BME280;29660;42.892;24.710;2023-02-01T03:50:44;97037.47;;;1.59;78.92
44001;BME280;29660;42.892;24.710;2023-02-01T03:55:50;97042.03;;;1.64;81.02
44001;BME280;29660;42.892;24.710;2023-02-01T04:00:58;97046.50;;;1.75;81.99
44001;BME280;29660;42.892;24.710;2023-02-01T04:06:05;96829.03;;;0.60;80.33
44001;BME280;29660;42.892;24.710;2023-02-01T04:11:08;97030.72;;;1.87;81.57
44001;BME280;29660;42.892;24.710;2023-02-01T04:16:10;97039.28;;;1.94;81.52
44001;BME280;29660;42.892;24.710;2023-02-01T04:21:12;96576.56;;;-0.95;79.90
44001;BME280;29660;42.892;24.710;2023-02-01T04:26:17;96870.00;;;0.96;79.80
44001;BME280;29660;42.892;24.710;2023-02-01T04:31:20;96769.78;;;0.29;80.89
44001;BME280;29660;42.892;24.710;2023-02-01T04:36:29;96799.78;;;0.33;75.97
44001;BME280;29660;42.892;24.710;2023-02-01T04:41:32;96891.13;;;1.01;79.20
44001;BME280;29660;42.892;24.710;2023-02-01T04:46:34;96985.78;;;1.65;78.55
44001;BME280;29660;42.892;24.710;2023-02-01T04:51:36;96993.69;;;1.65;79.45
44001;BME280;29660;42.892;24.710;2023-02-01T04:56:39;96993.56;;;1.71;80.58
44001;BME280;29660;42.892;24.710;2023-02-01T05:01:41;96568.28;;;-0.92;79.66
44001;BME280;29660;42.892;24.710;2023-02-01T05:06:44;97020.19;;;1.87;80.92
44001;BME280;29660;42.892;24.710;2023-02-01T05:11:46;96755.28;;;0.14;82.75
44001;BME280;29660;42.892;24.710;2023-02-01T05:17:06;96982.03;;;1.61;82.10
44001;BME280;29660;42.892;24.710;2023-02-01T05:22:08;96789.19;;;0.39;82.20
44001;BME280;29660;42.892;24.710;2023-02-01T05:27:11;96956.78;;;1.25;84.36
44001;BME280;29660;42.892;24.710;2023-02-01T05:32:12;96919.97;;;0.89;85.93
44001;BME280;29660;42.892;24.710;2023-02-01T05:37:23;96814.50;;;0.34;84.76
44001;BME280;29660;42.892;24.710;2023-02-01T05:42:25;96823.50;;;0.38;84.58
44001;BME280;29660;42.892;24.710;2023-02-01T05:47:27;97077.81;;;1.77;85.52
44001;BME280;29660;42.892;24.710;2023-02-01T05:52:37;97056.66;;;1.71;84.22
44001;BME280;29660;42.892;24.710;2023-02-01T05:57:39;96828.03;;;0.31;84.84
44001;BME280;29660;42.892;24.710;2023-02-01T06:02:41;96856.38;;;0.52;86.66
44001;BME280;29660;42.892;24.710;2023-02-01T06:07:44;96947.06;;;1.02;88.26
44001;BME280;29660;42.892;24.710;2023-02-01T06:12:46;97044.31;;;1.84;85.12
44001;BME280;29660;42.892;24.710;2023-02-01T06:17:48;96980.44;;;1.48;85.14
44001;BME280;29660;42.892;24.710;2023-02-01T06:22:50;96796.66;;;0.12;84.34
44001;BME280;29660;42.892;24.710;2023-02-01T06:28:13;97030.38;;;1.71;85.29
44001;BME280;29660;42.892;24.710;2023-02-01T06:33:16;97045.94;;;1.85;85.62
44001;BME280;29660;42.892;24.710;2023-02-01T06:38:18;96961.00;;;1.37;85.99
44001;BME280;29660;42.892;24.710;2023-02-01T06:43:25;97087.06;;;2.14;86.56
44001;BME280;29660;42.892;24.710;2023-02-01T06:48:27;97080.13;;;1.96;89.74
44001;BME280;29660;42.892;24.710;2023-02-01T06:53:30;97092.78;;;2.11;89.02
44001;BME280;29660;42.892;24.710;2023-02-01T06:58:33;96890.53;;;0.76;88.87
44001;BME280;29660;42.892;24.710;2023-02-01T07:03:35;97097.84;;;2.01;88.33
44001;BME280;29660;42.892;24.710;2023-02-01T07:08:37;97082.50;;;1.98;89.67
44001;BME280;29660;42.892;24.710;2023-02-01T07:13:40;96905.03;;;0.90;87.92
44001;BME280;29660;42.892;24.710;2023-02-01T07:18:42;96841.41;;;0.41;89.57
44001;BME280;29660;42.892;24.710;2023-02-01T07:23:44;97087.31;;;2.01;90.58
44001;BME280;29660;42.892;24.710;2023-02-01T07:28:46;97074.03;;;1.96;89.93
44001;BME280;29660;42.892;24.710;2023-02-01T07:33:49;97115.06;;;2.44;88.35
44001;BME280;29660;42.892;24.710;2023-02-01T07:38:54;97125.88;;;2.59;88.73
44001;BME280;29660;42.892;24.710;2023-02-01T07:43:57;96876.94;;;1.02;87.23
44001;BME280;29660;42.892;24.710;2023-02-01T07:48:59;97119.03;;;2.58;80.81
44001;BME280;29660;42.892;24.710;2023-02-01T07:54:01;97128.72;;;2.81;84.55
44001;BME280;29660;42.892;24.710;2023-02-01T07:59:03;97050.97;;;2.38;81.52
44001;BME280;29660;42.892;24.710;2023-02-01T08:04:06;97108.81;;;3.02;80.80
44001;BME280;29660;42.892;24.710;2023-02-01T08:09:27;96997.50;;;2.50;78.62
44001;BME280;29660;42.892;24.710;2023-02-01T08:14:29;97106.06;;;3.26;75.58
44001;BME280;29660;42.892;24.710;2023-02-01T08:19:31;97131.53;;;3.65;75.47
44001;BME280;29660;42.892;24.710;2023-02-01T08:24:33;96883.19;;;2.29;74.76
44001;BME280;29660;42.892;24.710;2023-02-01T08:29:35;97140.03;;;4.01;76.04
44001;BME280;29660;42.892;24.710;2023-02-01T08:34:37;97074.63;;;3.86;73.25
44001;BME280;29660;42.892;24.710;2023-02-01T08:39:39;97099.75;;;4.28;70.51
44001;BME280;29660;42.892;24.710;2023-02-01T08:44:48;97127.56;;;4.52;68.96
44001;BME280;29660;42.892;24.710;2023-02-01T08:49:50;96935.00;;;3.41;71.05
44001;BME280;29660;42.892;24.710;2023-02-01T08:54:52;96844.56;;;3.02;65.48
44001;BME280;29660;42.892;24.710;2023-02-01T08:59:54;97120.47;;;5.02;68.27
44001;BME280;29660;42.892;24.710;2023-02-01T09:04:56;96909.34;;;3.97;66.42
44001;BME280;29660;42.892;24.710;2023-02-01T09:09:58;97066.81;;;5.01;64.25
44001;BME280;29660;42.892;24.710;2023-02-01T09:15:03;96857.41;;;3.76;62.57
44001;BME280;29660;42.892;24.710;2023-02-01T09:20:05;96980.84;;;4.66;63.47
44001;BME280;29660;42.892;24.710;2023-02-01T09:25:08;97003.19;;;4.81;64.73
44001;BME280;29660;42.892;24.710;2023-02-01T09:30:10;96872.16;;;3.77;62.66
44001;BME280;29660;42.892;24.710;2023-02-01T09:35:12;97101.16;;;5.23;61.70
44001;BME280;29660;42.892;24.710;2023-02-01T09:40:15;96930.25;;;4.26;64.81
44001;BME280;29660;42.892;24.710;2023-02-01T09:46:16;97091.84;;;5.48;64.86
44001;BME280;29660;42.892;24.710;2023-02-01T09:50:55;97056.38;;;5.44;64.45
44001;BME280;29660;42.892;24.710;2023-02-01T09:56:00;97065.19;;;5.54;62.94
44001;BME280;29660;42.892;24.710;2023-02-01T10:01:14;96797.31;;;3.56;62.67
44001;BME280;29660;42.892;24.710;2023-02-01T10:27:32;96984.13;;;4.79;60.38
44001;BME280;29660;42.892;24.710;2023-02-01T10:32:35;96961.56;;;4.93;62.59
44001;BME280;29660;42.892;24.710;2023-02-01T10:37:37;96777.94;;;3.94;59.17
44001;BME280;29660;42.892;24.710;2023-02-01T10:42:39;97006.44;;;5.52;59.09
44001;BME280;29660;42.892;24.710;2023-02-01T10:47:41;96729.25;;;3.80;59.78
44001;BME280;29660;42.892;24.710;2023-02-01T10:53:05;97004.44;;;5.70;59.18
44001;BME280;29660;42.892;24.710;2023-02-01T10:58:20;96986.97;;;5.69;57.62
44001;BME280;29660;42.892;24.710;2023-02-01T11:03:36;96708.94;;;4.12;57.79
44001;BME280;29660;42.892;24.710;2023-02-01T11:08:47;97006.31;;;6.17;58.72
44001;BME280;29660;42.892;24.710;2023-02-01T11:14:01;96852.03;;;5.63;57.00
44001;BME280;29660;42.892;24.710;2023-02-01T11:19:06;96885.56;;;6.05;55.52
44001;BME280;29660;42.892;24.710;2023-02-01T11:24:34;96860.34;;;5.93;55.27
44001;BME280;29660;42.892;24.710;2023-02-01T11:29:39;96688.34;;;4.99;55.96
44001;BME280;29660;42.892;24.710;2023-02-01T11:34:54;96810.09;;;6.03;55.83
44001;BME280;29660;42.892;24.710;2023-02-01T11:40:00;96620.16;;;4.96;55.41
44001;BME280;29660;42.892;24.710;2023-02-01T11:45:24;96893.63;;;6.87;52.84
44001;BME280;29660;42.892;24.710;2023-02-01T11:50:38;96853.56;;;7.14;53.37
44001;BME280;29660;42.892;24.710;2023-02-01T11:55:53;96930.16;;;7.67;52.69
44001;BME280;29660;42.892;24.710;2023-02-01T12:17:12;96934.56;;;8.62;51.42
44001;BME280;29660;42.892;24.710;2023-02-01T12:33:34;96760.25;;;7.12;50.09
44001;BME280;29660;42.892;24.710;2023-02-01T12:39:06;96943.75;;;8.30;50.92
44001;BME280;29660;42.892;24.710;2023-02-01T12:44:27;96688.50;;;6.68;51.38
44001;BME280;29660;42.892;24.710;2023-02-01T12:54:45;96935.84;;;8.09;51.85
44001;BME280;29660;42.892;24.710;2023-02-01T12:59:55;96674.78;;;6.50;51.30
44001;BME280;29660;42.892;24.710;2023-02-01T13:05:20;96738.34;;;6.55;51.04
44001;BME280;29660;42.892;24.710;2023-02-01T13:15:40;96928.63;;;7.25;51.21
44001;BME280;29660;42.892;24.710;2023-02-01T13:21:05;96737.78;;;5.82;53.16
44001;BME280;29660;42.892;24.710;2023-02-01T13:26:08;96677.16;;;5.55;53.04
44001;BME280;29660;42.892;24.710;2023-02-01T13:36:31;96940.75;;;7.61;51.88
44001;BME280;29660;42.892;24.710;2023-02-01T13:41:56;96888.81;;;7.40;49.63
44001;BME280;29660;42.892;24.710;2023-02-01T13:47:03;96640.38;;;5.79;52.65
44001;BME280;29660;42.892;24.710;2023-02-01T13:52:38;96922.22;;;7.41;50.81
44001;BME280;29660;42.892;24.710;2023-02-01T13:57:42;96873.47;;;7.01;51.20
44001;BME280;29660;42.892;24.710;2023-02-01T14:02:49;96932.59;;;7.07;50.63
44001;BME280;29660;42.892;24.710;2023-02-01T14:29:02;96781.66;;;5.68;50.58
44001;BME280;29660;42.892;24.710;2023-02-01T14:34:10;96949.25;;;6.72;49.09
44001;BME280;29660;42.892;24.710;2023-02-01T14:39:22;96719.56;;;5.07;49.30
44001;BME280;29660;42.892;24.710;2023-02-01T14:44:28;96889.28;;;6.14;48.28
44001;BME280;29660;42.892;24.710;2023-02-01T14:49:33;96751.81;;;5.09;48.89
44001;BME280;29660;42.892;24.710;2023-02-01T14:54:37;96692.97;;;4.72;48.84
44001;BME280;29660;42.892;24.710;2023-02-01T14:59:42;96924.22;;;6.11;48.47
44001;BME280;29660;42.892;24.710;2023-02-01T15:04:44;96727.03;;;4.68;48.96
44001;BME280;29660;42.892;24.710;2023-02-01T15:09:47;96827.38;;;5.05;50.06
44001;BME280;29660;42.892;24.710;2023-02-01T15:15:18;96961.22;;;5.96;49.45
44001;BME280;29660;42.892;24.710;2023-02-01T15:20:26;96757.72;;;4.37;50.09
44001;BME280;29660;42.892;24.710;2023-02-01T15:25:31;96885.09;;;5.18;49.79
44001;BME280;29660;42.892;24.710;2023-02-01T15:30:35;96927.00;;;5.42;49.59
44001;BME280;29660;42.892;24.710;2023-02-01T15:35:40;96922.81;;;5.46;48.38
44001;BME280;29660;42.892;24.710;2023-02-01T15:41:19;96938.44;;;5.48;48.48
44001;BME280;29660;42.892;24.710;2023-02-01T15:46:44;96937.13;;;5.50;49.79
44001;BME280;29660;42.892;24.710;2023-02-01T15:51:47;96740.06;;;4.10;51.68
44001;BME280;29660;42.892;24.710;2023-02-01T15:56:52;96690.69;;;3.74;53.28
44001;BME280;29660;42.892;24.710;2023-02-01T16:01:55;96943.00;;;5.20;54.09
44001;BME280;29660;42.892;24.710;2023-02-01T16:07:02;96960.13;;;5.12;56.08
44001;BME280;29660;42.892;24.710;2023-02-01T16:17:37;96748.84;;;3.35;59.94
44001;BME280;29660;42.892;24.710;2023-02-01T16:22:39;96750.81;;;3.23;59.49
44001;BME280;29660;42.892;24.710;2023-02-01T16:27:41;96957.81;;;4.35;61.29
44001;BME280;29660;42.892;24.710;2023-02-01T16:32:43;96703.22;;;2.68;61.61
44001;BME280;29660;42.892;24.710;2023-02-01T16:37:45;96708.34;;;2.58;61.68
44001;BME280;29660;42.892;24.710;2023-02-01T16:42:50;96663.59;;;2.19;60.19
44001;BME280;29660;42.892;24.710;2023-02-01T16:47:54;96904.19;;;3.63;59.80
44001;BME280;29660;42.892;24.710;2023-02-01T16:52:57;96711.97;;;2.35;60.79
44001;BME280;29660;42.892;24.710;2023-02-01T16:57:59;96743.78;;;2.51;64.12
44001;BME280;29660;42.892;24.710;2023-02-01T17:03:01;96706.88;;;2.12;66.36
44001;BME280;29660;42.892;24.710;2023-02-01T17:08:05;96920.28;;;3.45;65.83
44001;BME280;29660;42.892;24.710;2023-02-01T17:13:13;96849.88;;;2.85;68.56
44001;BME280;29660;42.892;24.710;2023-02-01T17:18:16;96952.34;;;3.37;69.33
44001;BME280;29660;42.892;24.710;2023-02-01T17:23:19;96980.59;;;3.41;69.76
44001;BME280;29660;42.892;24.710;2023-02-01T17:28:21;96926.50;;;3.00;71.16
44001;BME280;29660;42.892;24.710;2023-02-01T17:33:26;96817.28;;;2.24;71.89
44001;BME280;29660;42.892;24.710;2023-02-01T17:38:29;96977.84;;;3.14;74.21
44001;BME280;29660;42.892;24.710;2023-02-01T17:43:31;96500.53;;;-0.06;75.13
44001;BME280;29660;42.892;24.710;2023-02-01T17:48:33;96946.19;;;2.64;76.07
44001;BME280;29660;42.892;24.710;2023-02-01T17:53:35;96881.41;;;2.17;78.22
44001;BME280;29660;42.892;24.710;2023-02-01T17:58:37;96889.00;;;2.02;77.31
44001;BME280;29660;42.892;24.710;2023-02-01T18:03:39;96980.53;;;2.57;77.85
44001;BME280;29660;42.892;24.710;2023-02-01T18:08:41;96910.00;;;2.14;78.36
44001;BME280;29660;42.892;24.710;2023-02-01T18:13:44;96692.03;;;0.86;76.96
44001;BME280;29660;42.892;24.710;2023-02-01T18:18:46;96970.66;;;2.64;76.07
44001;BME280;29660;42.892;24.710;2023-02-01T18:23:51;96738.34;;;1.04;79.09
44001;BME280;29660;42.892;24.710;2023-02-01T18:28:53;96918.03;;;2.07;79.74
44001;BME280;29660;42.892;24.710;2023-02-01T18:33:57;96773.28;;;1.05;80.71
44001;BME280;29660;42.892;24.710;2023-02-01T18:38:59;96970.25;;;2.15;81.90
44001;BME280;29660;42.892;24.710;2023-02-01T18:44:01;96964.25;;;2.03;82.53
44001;BME280;29660;42.892;24.710;2023-02-01T18:49:03;96681.84;;;0.26;82.83
44001;BME280;29660;42.892;24.710;2023-02-01T18:54:05;96723.94;;;0.43;83.22
44001;BME280;29660;42.892;24.710;2023-02-01T18:59:09;96917.69;;;1.63;83.19
44001;BME280;29660;42.892;24.710;2023-02-01T19:04:13;96983.66;;;2.14;83.14
44001;BME280;29660;42.892;24.710;2023-02-01T19:09:18;96993.94;;;2.15;84.54
44001;BME280;29660;42.892;24.710;2023-02-01T19:14:20;96866.56;;;1.31;84.65
44001;BME280;29660;42.892;24.710;2023-02-01T19:19:22;96962.22;;;1.93;85.08
44001;BME280;29660;42.892;24.710;2023-02-01T19:24:25;96948.97;;;1.77;84.94
44001;BME280;29660;42.892;24.710;2023-02-01T19:29:29;96941.44;;;1.68;85.56
44001;BME280;29660;42.892;24.710;2023-02-01T19:34:31;96862.34;;;1.18;86.32
44001;BME280;29660;42.892;24.710;2023-02-01T19:39:35;96707.19;;;0.09;86.31
44001;BME280;29660;42.892;24.710;2023-02-01T19:44:38;96656.31;;;-0.26;87.29
44001;BME280;29660;42.892;24.710;2023-02-01T19:49:40;96736.81;;;0.21;87.58
44001;BME280;29660;42.892;24.710;2023-02-01T19:54:42;96843.28;;;0.87;88.95
44001;BME280;29660;42.892;24.710;2023-02-01T19:59:44;96940.31;;;1.41;89.66
44001;BME280;29660;42.892;24.710;2023-02-01T20:04:47;96973.34;;;1.37;91.37
44001;BME280;29660;42.892;24.710;2023-02-01T20:09:49;96944.44;;;1.13;91.92
44001;BME280;29660;42.892;24.710;2023-02-01T20:14:51;96808.88;;;0.18;91.75
44001;BME280;29660;42.892;24.710;2023-02-01T20:20:03;96701.22;;;-0.52;91.67
44001;BME280;29660;42.892;24.710;2023-02-01T20:25:06;96638.22;;;-0.99;91.83
44001;BME280;29660;42.892;24.710;2023-02-01T20:30:08;96851.09;;;0.29;92.03
44001;BME280;29660;42.892;24.710;2023-02-01T20:35:12;96961.66;;;0.97;91.56
44001;BME280;29660;42.892;24.710;2023-02-01T20:40:14;96675.50;;;-0.85;91.52
44001;BME280;29660;42.892;24.710;2023-02-01T20:45:16;96970.22;;;0.93;92.90
44001;BME280;29660;42.892;24.710;2023-02-01T20:50:19;96697.97;;;-0.78;92.43
44001;BME280;29660;42.892;24.710;2023-02-01T20:55:21;96994.28;;;0.90;91.30
44001;BME280;29660;42.892;24.710;2023-02-01T21:00:23;96902.88;;;0.33;94.04
44001;BME280;29660;42.892;24.710;2023-02-01T21:05:25;96957.97;;;0.63;94.94
44001;BME280;29660;42.892;24.710;2023-02-01T21:10:43;96979.44;;;0.72;94.01
44001;BME280;29660;42.892;24.710;2023-02-01T21:15:46;96892.00;;;0.18;95.32
44001;BME280;29660;42.892;24.710;2023-02-01T21:20:49;96940.78;;;0.49;97.35
44001;BME280;29660;42.892;24.710;2023-02-01T21:25:51;96706.16;;;-1.04;97.34
44001;BME280;29660;42.892;24.710;2023-02-01T21:30:54;96473.69;;;-2.46;96.92
44001;BME280;29660;42.892;24.710;2023-02-01T21:35:56;96742.59;;;-0.72;96.77
44001;BME280;29660;42.892;24.710;2023-02-01T21:40:58;96894.97;;;0.21;97.66
44001;BME280;29660;42.892;24.710;2023-02-01T21:46:18;96733.09;;;-0.85;98.04
44001;BME280;29660;42.892;24.710;2023-02-01T21:51:20;96878.97;;;0.11;98.06
44001;BME280;29660;42.892;24.710;2023-02-01T21:56:22;96818.84;;;-0.32;98.57
44001;BME280;29660;42.892;24.710;2023-02-01T22:01:27;96629.59;;;-1.48;98.36
44001;BME280;29660;42.892;24.710;2023-02-01T22:06:41;96914.25;;;0.27;98.01
44001;BME280;29660;42.892;24.710;2023-02-01T22:11:43;96680.41;;;-1.07;97.87
44001;BME280;29660;42.892;24.710;2023-02-01T22:16:46;96918.63;;;0.33;98.67
44001;BME280;29660;42.892;24.710;2023-02-01T22:21:48;96749.66;;;-0.73;98.86
44001;BME280;29660;42.892;24.710;2023-02-01T22:26:50;96692.06;;;-1.21;99.80
44001;BME280;29660;42.892;24.710;2023-02-01T22:31:52;96703.53;;;-1.04;98.84
44001;BME280;29660;42.892;24.710;2023-02-01T22:36:54;96695.97;;;-1.12;100.00
44001;BME280;29660;42.892;24.710;2023-02-01T22:41:56;96684.34;;;-1.35;100.00
44001;BME280;29660;42.892;24.710;2023-02-01T22:46:58;96897.59;;;0.21;100.00
44001;BME280;29660;42.892;24.710;2023-02-01T22:52:00;96879.63;;;0.07;100.00
44001;BME280;29660;42.892;24.710;2023-02-01T22:57:03;96969.81;;;0.66;100.00
44001;BME280;29660;42.892;24.710;2023-02-01T23:02:04;96906.25;;;0.52;100.00
44001;BME280;29660;42.892;24.710;2023-02-01T23:07:06;96915.00;;;0.46;100.00
44001;BME280;29660;42.892;24.710;2023-02-01T23:12:08;96755.94;;;-0.44;97.87
44001;BME280;29660;42.892;24.710;2023-02-01T23:17:10;96957.69;;;1.65;86.34
44001;BME280;29660;42.892;24.710;2023-02-01T23:22:12;96877.91;;;2.29;76.27
44001;BME280;29660;42.892;24.710;2023-02-01T23:27:14;96706.59;;;1.46;76.50
44001;BME280;29660;42.892;24.710;2023-02-01T23:32:16;96990.66;;;3.44;74.68
44001;BME280;29660;42.892;24.710;2023-02-01T23:37:19;96981.56;;;3.52;76.71
44001;BME280;29660;42.892;24.710;2023-02-01T23:42:21;96718.66;;;1.76;80.16
44001;BME280;29660;42.892;24.710;2023-02-01T23:47:23;96780.59;;;2.00;87.15
44001;BME280;29660;42.892;24.710;2023-02-01T23:52:25;96784.91;;;1.89;93.77
44001;BME280;29660;42.892;24.710;2023-02-01T23:57:26;96776.94;;;1.72;97.36
